createdAt,value
2018-04-25T00:01:01.254Z,99.90
2018-04-25T00:03:29.745Z,99.90
2018-04-25T00:05:57.569Z,99.90
2018-04-25T00:08:26.050Z,99.90
2018-04-25T00:10:55.296Z,99.90
2018-04-25T00:13:23.395Z,99.90
2018-04-25T00:15:51.207Z,99.90
2018-04-25T00:18:19.732Z,99.90
2018-04-25T00:20:48.402Z,99.90
2018-04-25T00:23:16.921Z,99.90
2018-04-25T00:25:45.094Z,99.90
2018-04-25T00:28:14.351Z,99.90
2018-04-25T00:30:42.512Z,99.90
2018-04-25T00:33:10.727Z,99.90
2018-04-25T00:35:39.193Z,99.90
2018-04-25T00:38:07.678Z,99.90
2018-04-25T00:40:35.809Z,99.90
2018-04-25T00:43:03.686Z,99.90
2018-04-25T00:45:31.466Z,99.90
2018-04-25T00:47:59.655Z,99.90
2018-04-25T00:50:27.476Z,99.90
2018-04-25T00:52:56.418Z,99.90
2018-04-25T00:55:25.727Z,99.90
2018-04-25T00:57:53.488Z,99.90
2018-04-25T01:00:22.755Z,99.90
2018-04-25T01:02:51.699Z,99.90
2018-04-25T01:07:48.647Z,99.90
2018-04-25T01:10:21.195Z,99.90
2018-04-25T01:12:48.965Z,99.90
2018-04-25T01:15:16.761Z,99.90
2018-04-25T01:17:44.578Z,99.90
2018-04-25T01:20:13.499Z,99.90
2018-04-25T01:22:42.085Z,99.90
2018-04-25T01:28:21.398Z,99.90
2018-04-25T01:30:54.666Z,99.90
2018-04-25T01:33:23.365Z,99.90
2018-04-25T01:36:04.772Z,99.90
2018-04-25T01:38:33.501Z,99.90
2018-04-25T01:41:07.179Z,99.90
2018-04-25T01:43:35.069Z,99.90
2018-04-25T01:46:22.330Z,99.90
2018-04-25T01:52:05.913Z,99.90
2018-04-25T01:54:45.561Z,99.90
2018-04-25T01:57:25.070Z,99.90
2018-04-25T02:00:04.735Z,99.90
2018-04-25T02:02:32.018Z,99.90
2018-04-25T02:05:00.523Z,99.90
2018-04-25T02:07:29.056Z,99.90
2018-04-25T02:09:57.590Z,99.90
2018-04-25T02:12:26.110Z,99.90
2018-04-25T02:14:54.368Z,99.90
2018-04-25T02:17:22.835Z,99.90
2018-04-25T02:19:51.378Z,99.90
2018-04-25T02:22:19.870Z,99.90
2018-04-25T02:24:48.348Z,99.90
2018-04-25T02:27:16.844Z,99.90
2018-04-25T02:29:45.319Z,99.90
2018-04-25T02:32:13.835Z,99.90
2018-04-25T02:34:42.336Z,99.90
2018-04-25T02:37:11.559Z,99.90
2018-04-25T02:39:40.031Z,99.90
2018-04-25T02:42:08.538Z,99.90
2018-04-25T02:44:37.093Z,99.90
2018-04-25T02:47:05.587Z,99.90
2018-04-25T02:49:35.005Z,99.90
2018-04-25T02:52:03.523Z,99.90
2018-04-25T02:54:31.997Z,99.90
2018-04-25T02:57:00.486Z,99.90
2018-04-25T02:59:29.005Z,99.90
2018-04-25T03:01:57.525Z,99.90
2018-04-25T03:04:26.030Z,99.90
2018-04-25T03:06:55.322Z,99.90
2018-04-25T03:09:23.822Z,99.90
2018-04-25T03:11:52.362Z,99.90
2018-04-25T03:14:20.859Z,99.90
2018-04-25T03:16:49.209Z,99.90
2018-04-25T03:19:17.780Z,99.90
2018-04-25T03:21:46.312Z,99.90
2018-04-25T03:24:14.751Z,99.90
2018-04-25T03:26:43.227Z,99.90
2018-04-25T03:29:11.690Z,99.90
2018-04-25T03:31:41.014Z,99.90
2018-04-25T03:34:10.248Z,99.90
2018-04-25T03:36:38.698Z,99.90
2018-04-25T03:39:07.243Z,99.90
2018-04-25T03:41:35.718Z,99.90
2018-04-25T03:44:04.943Z,99.90
2018-04-25T03:46:33.426Z,99.90
2018-04-25T03:49:02.649Z,99.90
2018-04-25T03:51:31.194Z,99.90
2018-04-25T03:54:01.429Z,99.90
2018-04-25T03:56:29.858Z,99.90
2018-04-25T04:01:28.886Z,99.90
2018-04-25T04:03:57.372Z,99.90
2018-04-25T04:06:25.906Z,99.90
2018-04-25T04:08:57.055Z,99.90
2018-04-25T04:11:25.354Z,99.90
2018-04-25T04:13:53.909Z,99.90
2018-04-25T04:16:23.216Z,99.90
2018-04-25T04:18:51.690Z,99.90
2018-04-25T04:21:20.182Z,99.90
2018-04-25T04:23:48.659Z,99.90
2018-04-25T04:26:17.154Z,99.90
2018-04-25T04:28:45.616Z,99.90
2018-04-25T04:31:14.760Z,99.90
2018-04-25T04:33:43.617Z,99.90
2018-04-25T04:36:12.143Z,99.90
2018-04-25T04:38:40.390Z,99.90
2018-04-25T04:41:09.667Z,99.90
2018-04-25T04:43:38.160Z,99.90
2018-04-25T04:46:06.836Z,99.90
2018-04-25T04:48:35.360Z,99.90
2018-04-25T04:51:03.850Z,99.90
2018-04-25T04:53:32.313Z,99.90
2018-04-25T04:56:00.751Z,99.90
2018-04-25T04:58:29.225Z,99.90
2018-04-25T05:03:50.730Z,99.90
2018-04-25T05:06:19.206Z,99.90
2018-04-25T05:08:47.826Z,99.90
2018-04-25T05:11:17.026Z,99.90
2018-04-25T05:13:46.698Z,99.90
2018-04-25T05:16:16.998Z,99.90
2018-04-25T05:18:45.543Z,99.90
2018-04-25T05:21:14.032Z,99.90
2018-04-25T05:23:42.511Z,99.90
2018-04-25T05:26:11.327Z,99.90
2018-04-25T05:28:39.875Z,99.90
2018-04-25T05:31:08.414Z,99.90
2018-04-25T05:33:37.028Z,99.90
2018-04-25T05:36:09.715Z,99.90
2018-04-25T05:38:38.225Z,99.90
2018-04-25T05:41:06.894Z,99.90
2018-04-25T05:43:35.384Z,99.90
2018-04-25T05:46:03.727Z,99.90
2018-04-25T05:48:32.336Z,99.90
2018-04-25T05:51:00.897Z,99.90
2018-04-25T05:53:29.403Z,99.90
2018-04-25T05:55:57.871Z,99.90
2018-04-25T05:58:31.439Z,99.90
2018-04-25T06:01:00.705Z,99.90
2018-04-25T06:03:29.272Z,99.90
2018-04-25T06:05:57.739Z,99.90
2018-04-25T06:08:27.010Z,99.90
2018-04-25T06:11:02.784Z,99.90
2018-04-25T06:13:31.326Z,99.90
2018-04-25T06:15:59.557Z,99.90
2018-04-25T06:18:27.975Z,99.90
2018-04-25T06:20:56.431Z,99.90
2018-04-25T06:23:24.965Z,99.90
2018-04-25T06:25:53.431Z,99.90
2018-04-25T06:28:21.918Z,99.90
2018-04-25T06:30:50.430Z,99.90
2018-04-25T06:35:57.221Z,99.90
2018-04-25T06:38:25.710Z,99.90
2018-04-25T06:40:54.181Z,99.90
2018-04-25T06:43:22.861Z,99.90
2018-04-25T06:45:55.940Z,99.90
2018-04-25T06:48:24.387Z,99.90
2018-04-25T06:50:52.858Z,99.90
2018-04-25T06:53:21.420Z,99.90
2018-04-25T06:55:51.080Z,99.90
2018-04-25T06:58:20.004Z,99.90
2018-04-25T07:00:48.492Z,99.90
2018-04-25T07:03:17.920Z,99.90
2018-04-25T07:05:46.575Z,99.90
2018-04-25T07:08:15.888Z,99.90
2018-04-25T07:10:44.482Z,99.90
2018-04-25T07:13:12.946Z,99.90
2018-04-25T07:15:50.078Z,99.90
2018-04-25T07:18:18.635Z,99.90
2018-04-25T07:20:47.113Z,99.90
2018-04-25T07:23:16.737Z,99.90
2018-04-25T07:25:46.367Z,99.90
2018-04-25T07:28:15.264Z,99.90
2018-04-25T07:30:43.723Z,99.90
2018-04-25T07:33:12.286Z,99.90
2018-04-25T07:35:40.911Z,99.90
2018-04-25T07:38:08.845Z,99.90
2018-04-25T07:40:37.551Z,99.90
2018-04-25T07:43:06.021Z,99.90
2018-04-25T07:45:34.504Z,99.90
2018-04-25T07:48:02.762Z,99.90
2018-04-25T07:50:32.030Z,99.90
2018-04-25T07:53:00.520Z,99.90
2018-04-25T07:55:28.965Z,99.90
2018-04-25T07:57:57.427Z,99.90
2018-04-25T08:00:25.875Z,99.90
2018-04-25T08:02:54.370Z,99.90
2018-04-25T08:05:22.893Z,99.90
2018-04-25T08:07:51.436Z,99.90
2018-04-25T08:10:22.912Z,99.90
2018-04-25T08:13:04.308Z,99.90
2018-04-25T08:15:44.358Z,99.90
2018-04-25T08:18:24.196Z,99.90
2018-04-25T08:21:14.626Z,99.90
2018-04-25T08:23:43.355Z,99.90
2018-04-25T08:26:12.274Z,99.90
2018-04-25T08:28:40.735Z,99.90
2018-04-25T08:31:10.102Z,99.90
2018-04-25T08:33:38.742Z,99.90
2018-04-25T08:36:07.349Z,99.90
2018-04-25T08:38:36.696Z,99.90
2018-04-25T08:41:05.164Z,99.90
2018-04-25T08:43:33.798Z,99.90
2018-04-25T08:46:02.287Z,99.90
2018-04-25T08:48:30.772Z,99.90
2018-04-25T08:50:59.258Z,99.90
2018-04-25T08:53:27.789Z,99.90
2018-04-25T08:55:56.615Z,99.90
2018-04-25T08:58:25.905Z,99.90
2018-04-25T09:00:54.389Z,99.90
2018-04-25T09:03:23.705Z,99.90
2018-04-25T09:05:52.222Z,99.90
2018-04-25T09:08:20.846Z,99.90
2018-04-25T09:10:49.318Z,99.90
2018-04-25T09:13:17.416Z,99.90
2018-04-25T09:15:46.859Z,99.90
2018-04-25T09:18:15.812Z,99.90
2018-04-25T09:20:45.077Z,99.90
2018-04-25T09:23:13.580Z,99.90
2018-04-25T09:25:42.074Z,99.90
2018-04-25T09:28:10.553Z,99.90
2018-04-25T09:30:38.849Z,99.90
2018-04-25T09:33:08.318Z,99.90
2018-04-25T09:35:36.798Z,99.90
2018-04-25T09:38:05.326Z,99.90
2018-04-25T09:40:33.818Z,99.90
2018-04-25T09:43:03.073Z,99.90
2018-04-25T09:45:31.625Z,99.90
2018-04-25T09:48:00.882Z,99.90
2018-04-25T09:50:29.161Z,99.90
2018-04-25T09:52:57.668Z,99.90
2018-04-25T09:55:26.177Z,99.90
2018-04-25T09:57:54.698Z,99.90
2018-04-25T10:00:22.401Z,99.90
2018-04-25T10:02:56.484Z,99.90
2018-04-25T10:05:25.280Z,99.90
2018-04-25T10:07:57.214Z,99.90
2018-04-25T10:10:25.706Z,99.90
2018-04-25T10:12:54.191Z,99.90
2018-04-25T10:15:22.692Z,99.90
2018-04-25T10:17:51.186Z,99.90
2018-04-25T10:20:19.694Z,99.90
2018-04-25T10:22:48.356Z,99.90
2018-04-25T10:25:17.625Z,99.90
2018-04-25T10:27:46.122Z,99.90
2018-04-25T10:30:14.619Z,99.90
2018-04-25T10:32:43.301Z,99.90
2018-04-25T10:35:11.227Z,99.90
2018-04-25T10:37:39.510Z,99.90
2018-04-25T10:40:07.949Z,99.90
2018-04-25T10:42:36.440Z,99.90
2018-04-25T10:45:04.941Z,99.90
2018-04-25T10:47:33.707Z,99.90
2018-04-25T10:50:04.295Z,99.90
2018-04-25T10:52:32.796Z,99.90
2018-04-25T10:55:01.280Z,99.90
2018-04-25T10:57:29.838Z,99.90
2018-04-25T10:59:59.189Z,99.90
2018-04-25T11:02:27.449Z,99.90
2018-04-25T11:04:55.961Z,99.90
2018-04-25T11:07:24.553Z,99.90
2018-04-25T11:09:53.938Z,99.90
2018-04-25T11:12:22.414Z,99.90
2018-04-25T11:14:50.931Z,99.90
2018-04-25T11:17:20.529Z,99.90
2018-04-25T11:19:50.544Z,99.90
2018-04-25T11:22:19.068Z,99.90
2018-04-25T11:24:47.602Z,99.90
2018-04-25T11:27:16.092Z,99.90
2018-04-25T11:32:14.324Z,99.90
2018-04-25T11:34:42.863Z,99.90
2018-04-25T11:39:41.042Z,99.90
2018-04-25T11:42:09.682Z,99.90
2018-04-25T11:47:07.933Z,99.90
2018-04-25T11:49:36.383Z,99.90
2018-04-25T11:54:34.501Z,99.90
2018-04-25T11:57:02.943Z,99.90
2018-04-25T11:59:31.406Z,99.90
2018-04-25T12:02:00.626Z,99.90
2018-04-25T12:04:29.853Z,99.90
2018-04-25T12:06:58.430Z,99.90
2018-04-25T12:09:26.931Z,99.90
2018-04-25T12:11:56.106Z,99.90
2018-04-25T12:14:24.605Z,99.90
2018-04-25T12:16:53.049Z,99.90
2018-04-25T12:19:21.629Z,99.90
2018-04-25T12:21:51.253Z,99.90
2018-04-25T12:26:50.186Z,99.90
2018-04-25T12:29:18.691Z,99.90
2018-04-25T12:31:47.257Z,99.90
2018-04-25T12:34:16.910Z,99.90
2018-04-25T12:36:45.358Z,99.90
2018-04-25T12:39:13.827Z,99.90
2018-04-25T12:41:42.555Z,99.90
2018-04-25T12:44:11.962Z,99.90
2018-04-25T12:46:40.559Z,99.90
2018-04-25T12:49:09.177Z,99.90
2018-04-25T12:51:37.790Z,99.90
2018-04-25T12:54:06.990Z,99.90
2018-04-25T12:56:35.862Z,99.90
2018-04-25T12:59:04.295Z,99.90
2018-04-25T13:01:32.892Z,99.90
2018-04-25T13:04:02.395Z,99.90
2018-04-25T13:06:31.671Z,99.90
2018-04-25T13:09:00.233Z,99.90
2018-04-25T13:11:28.901Z,99.90
2018-04-25T13:16:27.562Z,99.90
2018-04-25T13:18:56.082Z,99.90
2018-04-25T13:21:24.699Z,99.90
2018-04-25T13:23:53.536Z,99.90
2018-04-25T13:26:22.107Z,99.90
2018-04-25T13:28:56.666Z,99.90
2018-04-25T13:31:25.277Z,99.90
2018-04-25T13:33:53.867Z,99.90
2018-04-25T13:36:23.834Z,99.90
2018-04-25T13:38:52.334Z,99.90
2018-04-25T13:41:20.797Z,99.90
2018-04-25T13:43:49.270Z,99.90
2018-04-25T13:46:18.511Z,99.90
2018-04-25T13:48:46.967Z,99.90
2018-04-25T13:51:16.367Z,99.90
2018-04-25T13:53:44.890Z,99.90
2018-04-25T13:58:47.402Z,99.90
2018-04-25T14:01:16.704Z,99.90
2018-04-25T14:03:45.360Z,99.90
2018-04-25T14:06:15.547Z,99.90
2018-04-25T14:08:44.102Z,99.90
2018-04-25T14:11:12.340Z,99.90
2018-04-25T14:13:40.882Z,99.90
2018-04-25T14:16:09.550Z,99.90
2018-04-25T14:18:38.102Z,99.90
2018-04-25T14:21:06.574Z,99.90
2018-04-25T14:23:53.241Z,99.90
2018-04-25T14:26:21.810Z,99.90
2018-04-25T14:28:51.532Z,99.90
2018-04-25T14:31:20.052Z,99.90
2018-04-25T14:33:48.701Z,99.90
2018-04-25T14:36:17.110Z,99.90
2018-04-25T14:38:46.102Z,99.90
2018-04-25T14:41:14.778Z,99.90
2018-04-25T14:43:43.301Z,99.90
2018-04-25T14:46:11.774Z,99.90
2018-04-25T14:48:40.347Z,99.60
2018-04-25T14:51:09.097Z,99.90
2018-04-25T14:53:37.624Z,99.90
2018-04-25T14:56:05.819Z,99.90
2018-04-25T14:58:34.106Z,99.90
2018-04-25T15:01:02.478Z,99.70
2018-04-25T15:03:31.257Z,99.90
2018-04-25T15:06:00.621Z,95.30
2018-04-25T15:08:29.158Z,95.80
2018-04-25T15:10:57.730Z,94.90
2018-04-25T15:13:26.243Z,95.30
2018-04-25T15:15:54.882Z,96.10
2018-04-25T15:18:23.392Z,96.00
2018-04-25T15:23:21.458Z,96.80
2018-04-25T15:25:49.957Z,95.90
2018-04-25T15:28:18.424Z,96.00
2018-04-25T15:30:46.930Z,96.30
2018-04-25T15:33:15.469Z,98.00
2018-04-25T15:35:50.906Z,97.70
2018-04-25T15:38:32.870Z,98.20
2018-04-25T15:41:01.342Z,98.10
2018-04-25T15:43:30.602Z,98.90
2018-04-25T15:45:59.169Z,99.90
2018-04-25T15:48:30.750Z,98.20
2018-04-25T15:50:59.647Z,97.10
2018-04-25T15:53:28.026Z,98.20
2018-04-25T15:55:56.433Z,97.60
2018-04-25T15:58:25.124Z,97.90
2018-04-25T16:00:53.650Z,98.20
2018-04-25T16:03:22.134Z,97.10
2018-04-25T16:05:50.610Z,97.60
2018-04-25T16:08:19.100Z,96.90
2018-04-25T16:10:47.569Z,96.10
2018-04-25T16:13:36.526Z,95.40
2018-04-25T16:16:05.014Z,95.40
2018-04-25T16:18:33.490Z,94.70
2018-04-25T16:21:03.104Z,95.20
2018-04-25T16:23:31.680Z,95.70
2018-04-25T16:26:00.228Z,95.10
2018-04-25T16:28:28.704Z,96.10
2018-04-25T16:30:57.397Z,96.30
2018-04-25T16:33:25.892Z,96.80
2018-04-25T16:35:54.524Z,95.70
2018-04-25T16:38:23.447Z,96.10
2018-04-25T16:40:52.917Z,96.00
2018-04-25T16:43:30.912Z,95.90
2018-04-25T16:45:59.727Z,96.00
2018-04-25T16:48:36.828Z,96.20
2018-04-25T16:51:08.294Z,96.20
2018-04-25T16:53:36.810Z,96.10
2018-04-25T16:56:11.324Z,96.90
2018-04-25T16:58:40.675Z,96.20
2018-04-25T17:01:14.702Z,96.20
2018-04-25T17:03:43.301Z,96.50
2018-04-25T17:06:11.750Z,95.60
2018-04-25T17:08:40.463Z,96.70
2018-04-25T17:11:09.054Z,96.40
2018-04-25T17:13:37.780Z,97.00
2018-04-25T17:16:06.362Z,96.80
2018-04-25T17:18:35.744Z,97.70
2018-04-25T17:21:04.055Z,97.70
2018-04-25T17:23:32.810Z,97.40
2018-04-25T17:26:01.272Z,96.60
2018-04-25T17:28:29.774Z,96.70
2018-04-25T17:30:58.245Z,96.30
2018-04-25T17:33:26.783Z,96.60
2018-04-25T17:35:56.376Z,95.90
2018-04-25T17:38:24.963Z,96.40
2018-04-25T17:40:53.496Z,96.50
2018-04-25T17:43:22.041Z,96.80
2018-04-25T17:45:52.975Z,97.40
2018-04-25T17:48:22.185Z,97.70
2018-04-25T17:50:50.979Z,97.60
2018-04-25T17:53:20.521Z,97.70
2018-04-25T17:55:48.985Z,97.50
2018-04-25T17:58:18.405Z,97.20
2018-04-25T18:00:47.126Z,98.10
2018-04-25T18:03:16.799Z,98.70
2018-04-25T18:08:26.343Z,98.00
2018-04-25T18:10:54.970Z,98.70
2018-04-25T18:13:23.504Z,99.00
2018-04-25T18:15:53.357Z,98.80
2018-04-25T18:18:21.884Z,98.30
2018-04-25T18:20:50.412Z,98.10
2018-04-25T18:23:19.069Z,97.00
2018-04-25T18:25:47.826Z,97.80
2018-04-25T18:28:17.204Z,97.90
2018-04-25T18:30:45.762Z,97.90
2018-04-25T18:33:13.965Z,97.20
2018-04-25T18:35:42.963Z,95.30
2018-04-25T18:38:11.596Z,96.20
2018-04-25T18:40:40.065Z,95.30
2018-04-25T18:43:10.345Z,95.30
2018-04-25T18:45:38.864Z,95.40
2018-04-25T18:48:07.384Z,95.40
2018-04-25T18:50:36.683Z,95.70
2018-04-25T18:53:05.443Z,95.70
2018-04-25T18:55:33.961Z,95.50
2018-04-25T18:58:02.483Z,96.40
2018-04-25T19:00:31.149Z,96.50
2018-04-25T19:03:00.468Z,96.50
2018-04-25T19:05:29.283Z,96.20
2018-04-25T19:07:58.825Z,96.30
2018-04-25T19:10:27.577Z,97.00
2018-04-25T19:12:57.054Z,96.90
2018-04-25T19:15:25.656Z,96.80
2018-04-25T19:17:54.207Z,96.80
2018-04-25T19:20:26.714Z,97.20
2018-04-25T19:22:54.898Z,97.50
2018-04-25T19:25:24.207Z,98.40
2018-04-25T19:27:53.520Z,99.30
2018-04-25T19:30:23.072Z,98.90
2018-04-25T19:32:51.717Z,98.90
2018-04-25T19:35:20.297Z,98.70
2018-04-25T19:37:48.912Z,99.50
2018-04-25T19:40:18.269Z,99.80
2018-04-25T19:42:46.790Z,99.80
2018-04-25T19:45:15.014Z,99.90
2018-04-25T19:47:44.312Z,99.90
2018-04-25T19:50:14.278Z,99.90
2018-04-25T19:52:42.797Z,99.90
2018-04-25T19:55:11.035Z,99.90
2018-04-25T19:57:39.548Z,99.90
2018-04-25T20:00:08.864Z,99.90
2018-04-25T20:02:37.364Z,99.90
2018-04-25T20:05:05.939Z,99.90
2018-04-25T20:07:35.312Z,99.90
2018-04-25T20:10:03.888Z,99.90
2018-04-25T20:12:32.659Z,99.90
2018-04-25T20:15:01.606Z,99.90
2018-04-25T20:17:33.477Z,99.90
2018-04-25T20:20:02.152Z,99.90
2018-04-25T20:22:31.389Z,99.90
2018-04-25T20:25:04.093Z,99.90
2018-04-25T20:27:32.582Z,99.90
2018-04-25T20:30:01.035Z,99.90
2018-04-25T20:32:30.257Z,99.90
2018-04-25T20:34:58.729Z,99.90
2018-04-25T20:37:27.274Z,99.90
2018-04-25T20:39:55.730Z,99.90
2018-04-25T20:42:25.046Z,99.90
2018-04-25T20:44:53.617Z,99.90
2018-04-25T20:47:22.337Z,99.90
2018-04-25T20:49:50.801Z,99.90
2018-04-25T20:52:19.225Z,99.90
2018-04-25T20:54:47.783Z,99.90
2018-04-25T20:57:17.210Z,99.90
2018-04-25T20:59:46.611Z,99.90
2018-04-25T21:02:15.080Z,99.90
2018-04-25T21:04:43.738Z,99.90
2018-04-25T21:07:12.763Z,99.90
2018-04-25T21:09:41.424Z,99.90
2018-04-25T21:12:09.846Z,99.90
2018-04-25T21:14:39.060Z,99.90
2018-04-25T21:17:07.537Z,99.90
2018-04-25T21:19:36.026Z,99.90
2018-04-25T21:22:04.530Z,99.90
2018-04-25T21:24:33.570Z,99.90
2018-04-25T21:27:01.825Z,99.90
2018-04-25T21:29:31.047Z,99.90
2018-04-25T21:32:00.293Z,99.90
2018-04-25T21:34:28.780Z,99.90
2018-04-25T21:36:57.238Z,99.90
2018-04-25T21:39:26.523Z,99.90
2018-04-25T21:41:55.154Z,99.90
2018-04-25T21:44:23.616Z,99.90
2018-04-25T21:46:52.094Z,99.90
2018-04-25T21:49:20.566Z,99.90
2018-04-25T21:51:49.022Z,99.90
2018-04-25T21:54:18.259Z,99.90
2018-04-25T21:56:47.001Z,99.90
2018-04-25T21:59:15.551Z,99.90
2018-04-25T22:01:44.741Z,99.90
2018-04-25T22:04:13.293Z,99.90
2018-04-25T22:06:41.812Z,99.90
2018-04-25T22:09:10.293Z,99.90
2018-04-25T22:11:39.560Z,99.90
2018-04-25T22:14:08.205Z,99.90
2018-04-25T22:16:36.711Z,99.90
2018-04-25T22:19:05.361Z,99.90
2018-04-25T22:21:33.841Z,99.90
2018-04-25T22:24:02.265Z,99.90
2018-04-25T22:26:30.732Z,99.90
2018-04-25T22:28:59.182Z,99.90
2018-04-25T22:31:27.695Z,99.90
2018-04-25T22:33:56.186Z,99.90
2018-04-25T22:36:25.431Z,99.90
2018-04-25T22:38:53.909Z,99.90
2018-04-25T22:41:22.398Z,99.90
2018-04-25T22:43:51.602Z,99.90
2018-04-25T22:46:20.879Z,99.90
2018-04-25T22:48:49.455Z,99.90
2018-04-25T22:51:17.958Z,99.90
2018-04-25T22:53:46.499Z,99.90
2018-04-25T22:56:15.742Z,99.90
2018-04-25T22:58:44.210Z,99.90
2018-04-25T23:01:13.482Z,99.90
2018-04-25T23:03:42.002Z,99.90
2018-04-25T23:06:10.466Z,99.90
2018-04-25T23:08:39.043Z,99.90
2018-04-25T23:11:07.563Z,99.90
2018-04-25T23:13:36.025Z,99.90
2018-04-25T23:16:05.629Z,99.90
2018-04-25T23:18:34.144Z,99.90
2018-04-25T23:21:02.674Z,99.90
2018-04-25T23:23:31.125Z,99.90
2018-04-25T23:25:59.378Z,99.90
2018-04-25T23:28:27.857Z,99.90
2018-04-25T23:30:57.110Z,99.90
2018-04-25T23:33:26.417Z,99.90
2018-04-25T23:35:54.970Z,99.90
2018-04-25T23:38:24.366Z,99.90
2018-04-25T23:40:52.834Z,99.90
2018-04-25T23:43:21.748Z,99.90
2018-04-25T23:45:50.210Z,99.90
2018-04-25T23:48:19.498Z,99.90
2018-04-25T23:50:47.981Z,99.90
2018-04-25T23:53:16.851Z,99.90
2018-04-25T23:55:45.451Z,99.90
2018-04-25T23:58:13.975Z,99.90
